createdAt,value
2023-05-20T00:00:22.366Z,891.69231
2023-05-20T00:05:23.878Z,877.33333
2023-05-20T00:10:25.525Z,921.77778
2023-05-20T00:15:26.838Z,877.33333
2023-05-20T00:20:28.429Z,877.33333
2023-05-20T00:25:29.970Z,836.75362
2023-05-20T00:30:31.292Z,799.55556
2023-05-20T00:35:32.771Z,811.60563
2023-05-20T00:40:34.119Z,824
2023-05-20T00:45:35.764Z,906.5
2023-05-20T00:50:37.272Z,921.77778
2023-05-20T00:55:38.769Z,921.77778
2023-05-20T01:00:40.181Z,953.83607
2023-05-20T01:05:42.524Z,906.5
2023-05-20T01:10:43.994Z,877.33333
2023-05-20T01:15:46.135Z,849.88235
2023-05-20T01:20:48.857Z,824
2023-05-20T01:25:50.301Z,799.55556
2023-05-20T01:30:51.546Z,811.60563
2023-05-20T01:35:52.793Z,811.60563
2023-05-20T01:40:54.153Z,824
2023-05-20T01:45:55.627Z,799.55556
2023-05-20T01:50:57.319Z,787.83562
2023-05-20T01:55:58.920Z,799.55556
2023-05-20T02:01:00.571Z,799.55556
2023-05-20T02:06:02.065Z,799.55556
2023-05-20T02:11:03.492Z,799.55556
2023-05-20T02:16:05.155Z,787.83562
2023-05-20T02:21:06.479Z,787.83562
2023-05-20T02:26:08.129Z,799.55556
2023-05-20T02:31:09.442Z,776.43243
2023-05-20T02:36:11.305Z,776.43243
2023-05-20T02:41:13.085Z,723.74684
2023-05-20T02:46:14.862Z,776.43243
2023-05-20T02:51:16.538Z,776.43243
2023-05-20T02:56:18.077Z,787.83562
2023-05-20T03:01:19.715Z,787.83562
2023-05-20T03:06:20.992Z,765.33333
2023-05-20T03:11:22.303Z,754.52632
2023-05-20T03:16:23.636Z,744
2023-05-20T03:21:24.910Z,733.74359
2023-05-20T03:26:26.328Z,744
2023-05-20T03:31:27.647Z,754.52632
2023-05-20T03:36:28.958Z,744
2023-05-20T03:41:30.227Z,744
2023-05-20T03:46:31.682Z,754.52632
2023-05-20T03:51:32.987Z,744
2023-05-20T03:56:34.364Z,744
2023-05-20T04:01:35.688Z,744
2023-05-20T04:06:37.014Z,733.74359
2023-05-20T04:11:38.418Z,744
2023-05-20T04:16:39.716Z,733.74359
2023-05-20T04:21:41.097Z,733.74359
2023-05-20T04:26:42.386Z,733.74359
2023-05-20T04:31:43.669Z,733.74359
2023-05-20T04:36:44.953Z,733.74359
2023-05-20T04:41:46.534Z,733.74359
2023-05-20T04:46:48.159Z,733.74359
2023-05-20T04:51:49.764Z,733.74359
2023-05-20T04:56:51.352Z,733.74359
2023-05-20T05:01:53.205Z,744
2023-05-20T05:06:54.934Z,744
2023-05-20T05:11:56.520Z,744
2023-05-20T05:16:58.159Z,744
2023-05-20T05:21:59.704Z,723.74684
2023-05-20T05:27:01.460Z,723.74684
2023-05-20T05:32:02.798Z,723.74684
2023-05-20T05:37:04.180Z,714
2023-05-20T05:42:05.930Z,714
2023-05-20T05:47:07.524Z,714
2023-05-20T05:52:08.906Z,652.04598
2023-05-20T05:57:10.370Z,628.44444
2023-05-20T06:02:11.826Z,644
2023-05-20T06:07:13.117Z,668.70588
2023-05-20T06:12:14.734Z,686.16867
2023-05-20T06:17:16.243Z,754.52632
2023-05-20T06:22:17.530Z,787.83562
2023-05-20T06:27:19.143Z,849.88235
2023-05-20T06:32:20.601Z,937.54839
2023-05-20T06:37:22.199Z,877.33333
2023-05-20T06:42:23.804Z,849.88235
2023-05-20T06:47:25.630Z,1006.06897
2023-05-20T06:52:26.903Z,891.69231
2023-05-20T06:57:28.643Z,877.33333
2023-05-20T07:02:30.586Z,953.83607
2023-05-20T07:07:32.412Z,824
2023-05-20T07:12:36.031Z,1376.55814
2023-05-20T07:17:38.501Z,2877.33333
2023-05-20T07:22:40.163Z,2068.13793
2023-05-20T07:27:41.742Z,2144
2023-05-20T07:32:43.261Z,1997.33333
2023-05-20T07:37:44.736Z,1869
2023-05-20T07:42:46.126Z,2510.66667
2023-05-20T07:47:47.951Z,2225.48148
2023-05-20T07:52:56.416Z,4050.66667
2023-05-20T07:57:58.644Z,5544
2023-05-20T08:03:00.534Z,6788.44444
2023-05-20T08:08:02.613Z,6788.44444
2023-05-20T08:13:04.272Z,5077.33333
2023-05-20T08:18:06.096Z,6788.44444
2023-05-20T08:23:07.935Z,6788.44444
2023-05-20T08:28:09.560Z,8744
2023-05-20T08:33:11.248Z,12264
2023-05-20T08:38:13.069Z,15344
2023-05-20T08:43:14.683Z,12264
2023-05-20T08:48:16.326Z,20477.33333
2023-05-20T08:53:18.252Z,61544
2023-05-20T08:58:19.906Z,61544
2023-05-20T09:03:21.537Z,61544
2023-05-20T09:08:23.240Z,61544
2023-05-20T09:13:25.155Z,0
2023-05-20T09:18:26.743Z,61544
2023-05-20T09:23:28.471Z,61544
2023-05-20T09:28:30.118Z,0
2023-05-20T09:33:31.879Z,61544
2023-05-20T09:38:33.909Z,61544
2023-05-20T09:43:35.806Z,61544
2023-05-20T09:48:37.553Z,61544
2023-05-20T09:53:39.151Z,61544
2023-05-20T09:58:40.753Z,61544
2023-05-20T10:03:44.307Z,61544
2023-05-20T10:08:46.003Z,61544
2023-05-20T10:13:47.330Z,61544
2023-05-20T10:18:48.631Z,61544
2023-05-20T10:23:50.035Z,61544
2023-05-20T10:28:51.360Z,61544
2023-05-20T10:33:52.775Z,61544
2023-05-20T10:38:54.230Z,61544
2023-05-20T10:43:55.795Z,61544
2023-05-20T10:48:57.265Z,61544
2023-05-20T10:53:58.968Z,0
2023-05-20T10:59:00.646Z,0
2023-05-20T11:04:02.469Z,0
2023-05-20T11:09:03.964Z,0
2023-05-20T11:14:05.535Z,30744
2023-05-20T11:19:07.099Z,0
2023-05-20T11:24:08.770Z,61544
2023-05-20T11:29:10.438Z,0
2023-05-20T11:34:12.003Z,30744
2023-05-20T11:39:13.625Z,61544
2023-05-20T11:44:15.207Z,0
2023-05-20T11:49:16.847Z,0
2023-05-20T11:54:18.358Z,0
2023-05-20T11:59:19.866Z,0
2023-05-20T12:04:21.464Z,0
2023-05-20T12:09:23.076Z,0
2023-05-20T12:14:24.772Z,0
2023-05-20T12:19:26.244Z,0
2023-05-20T12:24:30.032Z,61544
2023-05-20T12:29:32.082Z,0
2023-05-20T12:34:33.702Z,0
2023-05-20T12:39:35.300Z,0
2023-05-20T12:44:37.155Z,0
2023-05-20T12:49:38.729Z,0
2023-05-20T12:54:45.784Z,0
2023-05-20T12:59:47.617Z,0
2023-05-20T13:04:48.929Z,0
2023-05-20T13:09:50.272Z,0
2023-05-20T13:14:51.630Z,0
2023-05-20T13:19:53.130Z,0
2023-05-20T13:24:54.460Z,0
2023-05-20T13:29:55.859Z,0
2023-05-20T13:34:57.488Z,0
2023-05-20T13:39:58.857Z,0
2023-05-20T13:45:00.254Z,0
2023-05-20T13:50:03.242Z,0
2023-05-20T13:55:05.284Z,0
2023-05-20T14:00:06.736Z,0
2023-05-20T14:05:07.999Z,0
2023-05-20T14:10:09.770Z,61544
2023-05-20T14:15:11.227Z,0
2023-05-20T14:20:12.530Z,61544
2023-05-20T14:25:13.834Z,30744
2023-05-20T14:30:15.305Z,30744
2023-05-20T14:35:16.548Z,3186.10526
2023-05-20T14:40:18.005Z,15344
2023-05-20T14:45:19.271Z,61544
2023-05-20T14:50:20.509Z,61544
2023-05-20T14:55:21.821Z,61544
2023-05-20T15:00:23.156Z,20477.33333
2023-05-20T15:05:24.424Z,15344
2023-05-20T15:10:25.793Z,5077.33333
2023-05-20T15:15:27.114Z,4682.46154
2023-05-20T15:20:28.399Z,4050.66667
2023-05-20T15:25:29.669Z,1283.13043
2023-05-20T15:30:31.279Z,1024.70175
2023-05-20T15:35:32.585Z,970.66667
2023-05-20T15:40:34.298Z,906.5
2023-05-20T15:45:35.697Z,863.40299
2023-05-20T15:50:37.203Z,906.5
2023-05-20T15:55:38.703Z,1151.84314
2023-05-20T16:00:40.013Z,1064
2023-05-20T16:05:41.286Z,877.33333
2023-05-20T16:10:42.592Z,988.0678
2023-05-20T16:15:43.916Z,787.83562
2023-05-20T16:20:45.221Z,754.52632
2023-05-20T16:25:46.480Z,714
2023-05-20T16:30:47.779Z,723.74684
2023-05-20T16:35:49.100Z,733.74359
2023-05-20T16:40:50.835Z,733.74359
2023-05-20T16:45:52.155Z,714
2023-05-20T16:50:53.446Z,765.33333
2023-05-20T16:55:54.709Z,776.43243
2023-05-20T17:00:56.033Z,776.43243
2023-05-20T17:05:57.407Z,836.75362
2023-05-20T17:10:58.796Z,824
2023-05-20T17:16:00.421Z,799.55556
2023-05-20T17:21:01.687Z,799.55556
2023-05-20T17:26:03.002Z,824
2023-05-20T17:31:04.321Z,744
2023-05-20T17:36:05.676Z,836.75362
2023-05-20T17:41:07.274Z,849.88235
2023-05-20T17:46:08.957Z,953.83607
2023-05-20T17:51:10.363Z,1044
2023-05-20T17:56:11.675Z,1064
2023-05-20T18:01:12.990Z,1151.84314
2023-05-20T18:06:14.304Z,921.77778
2023-05-20T18:11:15.598Z,1044
2023-05-20T18:16:17.124Z,530.66667
2023-05-20T18:21:18.587Z,733.74359
2023-05-20T18:26:20.140Z,704.49383
2023-05-20T18:31:21.509Z,953.83607
2023-05-20T18:36:22.891Z,660.27907
2023-05-20T18:41:27.240Z,836.75362
2023-05-20T18:46:37.310Z,877.33333
2023-05-20T18:51:38.828Z,811.60563
2023-05-20T18:56:40.463Z,744
2023-05-20T19:01:42.003Z,733.74359
2023-05-20T19:06:43.670Z,704.49383
2023-05-20T19:11:45.227Z,644
2023-05-20T19:16:46.644Z,636.13483
2023-05-20T19:21:48.066Z,652.04598
2023-05-20T19:26:49.424Z,686.16867
2023-05-20T19:31:51.084Z,579.05155
2023-05-20T19:36:52.396Z,514.37037
2023-05-20T19:41:54.435Z,547.92157
2023-05-20T19:46:55.907Z,579.05155
2023-05-20T19:51:57.606Z,572.57143
2023-05-20T19:56:59.281Z,566.22222
2023-05-20T20:02:01.128Z,566.22222
2023-05-20T20:07:02.832Z,572.57143
2023-05-20T20:12:04.445Z,566.22222
2023-05-20T20:17:06.073Z,542.05825
2023-05-20T20:22:07.765Z,489.13274
2023-05-20T20:27:09.656Z,536.30769
2023-05-20T20:32:11.329Z,542.05825
2023-05-20T20:37:12.983Z,542.05825
2023-05-20T20:42:14.624Z,536.30769
2023-05-20T20:47:16.407Z,553.90099
2023-05-20T20:52:17.985Z,525.13208
2023-05-20T20:57:19.626Z,542.05825
2023-05-20T21:02:21.380Z,560
2023-05-20T21:07:23.046Z,572.57143
2023-05-20T21:12:24.337Z,572.57143
2023-05-20T21:17:26.191Z,572.57143
2023-05-20T21:22:27.807Z,560
2023-05-20T21:27:29.553Z,585.66667
2023-05-20T21:32:31.358Z,585.66667
2023-05-20T21:37:32.939Z,592.42105
2023-05-20T21:42:34.509Z,592.42105
2023-05-20T21:47:36.281Z,599.31915
2023-05-20T21:52:37.914Z,599.31915
2023-05-20T21:57:39.518Z,599.31915
2023-05-20T22:02:41.442Z,613.56522
2023-05-20T22:07:43.021Z,613.56522
2023-05-20T22:12:44.585Z,628.44444
2023-05-20T22:17:46.619Z,628.44444
2023-05-20T22:22:47.965Z,628.44444
2023-05-20T22:27:49.439Z,686.16867
2023-05-20T22:32:50.875Z,613.56522
2023-05-20T22:37:52.152Z,606.36559
2023-05-20T22:42:53.477Z,613.56522
2023-05-20T22:47:54.808Z,636.13483
2023-05-20T22:52:56.372Z,620.92308
2023-05-20T22:57:57.977Z,585.66667
2023-05-20T23:02:59.664Z,579.05155
2023-05-20T23:08:01.172Z,579.05155
2023-05-20T23:13:02.846Z,542.05825
2023-05-20T23:18:04.435Z,542.05825
2023-05-20T23:23:11.318Z,542.05825
2023-05-20T23:28:13.369Z,530.66667
2023-05-20T23:33:15.330Z,519.70093
2023-05-20T23:38:16.968Z,536.30769
2023-05-20T23:43:18.572Z,547.92157
2023-05-20T23:48:20.454Z,542.05825
2023-05-20T23:53:22.044Z,525.13208
2023-05-20T23:58:23.713Z,530.66667
